Cygnet Bay, Australia
Current Conditions -  °F | °C
As of 10:30 AM on Sunday 21 Dec 2014 (Local Time) from YCIN Reporting Station
Scattered Clouds Scattered Clouds  
Wind Chill: 91°   Ceiling: Unl
Heat Index: 100°   Visibility: NA
Dew Point: 73°   Wind: 7mph
Humidity: 55%   Direction: 180°S
Pressure: 29.77"   Gusts: NA
Location:  16.44°S, 123.01°E
Report Text: YCIN 210230Z AUTO 18006KT 140V240 //// // SCT041 33/23 Q1008
Loading
Personal Weather Stations






























Interactive Weather Map New forecast layout! Learn more

10-Day Weather Forecast

Advertisements
Track Severe Weather on mobile